Time;durP1;ratioP1;P1;durP2;ratioP2;P2;SDS_P1;SDS_P2;PMS_P1;PMS_P2;Temp;Humidity;BMP_temperature;BMP_pressure;BME280_temperature;BME280_humidity;BME280_pressure;Samples;Min_cycle;Max_cycle;Signal;HPM_P1;HPM_P2
2023/07/31 00:01:42;;;;;;;6.90;6.40;;;;;;;;;;6073939;29;20277;-80
2023/07/31 00:04:46;;;;;;;7.32;6.65;;;;;;;;;;6074695;29;20276;-80
2023/07/31 00:07:50;;;;;;;6.93;6.40;;;;;;;;;;6096639;29;20284;-80
2023/07/31 00:10:54;;;;;;;7.32;6.68;;;;;;;;;;6097676;29;20241;-81
2023/07/31 00:13:59;;;;;;;6.90;6.35;;;;;;;;;;6093957;29;20269;-79
2023/07/31 00:17:04;;;;;;;6.60;6.10;;;;;;;;;;6078065;29;20257;-80
2023/07/31 00:20:09;;;;;;;7.00;6.50;;;;;;;;;;6074388;29;20542;-79
2023/07/31 00:23:13;;;;;;;7.28;6.63;;;;;;;;;;6074182;29;20238;-79
2023/07/31 00:26:17;;;;;;;7.00;6.35;;;;;;;;;;6074455;29;20241;-79
2023/07/31 00:29:22;;;;;;;6.80;6.30;;;;;;;;;;6072944;29;20265;-80
2023/07/31 00:32:27;;;;;;;6.82;6.43;;;;;;;;;;6074266;29;20248;-79
2023/07/31 00:35:31;;;;;;;6.55;6.05;;;;;;;;;;6074128;29;20246;-80
2023/07/31 00:38:35;;;;;;;6.88;6.47;;;;;;;;;;6073921;29;20270;-80
2023/07/31 00:41:39;;;;;;;6.88;6.28;;;;;;;;;;6073437;29;20285;-80
2023/07/31 00:44:44;;;;;;;6.32;6.03;;;;;;;;;;6072558;29;20273;-79
2023/07/31 00:47:48;;;;;;;6.45;6.03;;;;;;;;;;6072698;29;20274;-79
2023/07/31 00:50:52;;;;;;;6.45;5.95;;;;;;;;;;6074316;29;20237;-80
2023/07/31 00:53:57;;;;;;;6.20;5.82;;;;;;;;;;6073393;29;20250;-80
2023/07/31 00:57:01;;;;;;;6.65;6.25;;;;;;;;;;6072845;29;20249;-79
2023/07/31 01:00:10;;;;;;;6.55;6.15;;;;;;;;;;6073335;29;20245;-79
2023/07/31 01:03:14;;;;;;;6.63;6.22;;;;;;;;;;6072416;29;20266;-79
2023/07/31 01:06:27;;;;;;;7.22;6.50;;;;;;;;;;6078843;29;20493;-80
2023/07/31 01:09:36;;;;;;;6.88;6.47;;;;;;;;;;6076009;29;20494;-80
2023/07/31 01:12:41;;;;;;;7.50;6.75;;;;;;;;;;6072426;29;20277;-80
2023/07/31 01:15:46;;;;;;;7.00;6.60;;;;;;;;;;6090960;29;20253;-80
2023/07/31 01:18:50;;;;;;;6.65;6.20;;;;;;;;;;6096078;29;20277;-79
2023/07/31 01:22:13;;;;;;;6.55;6.25;;;;;;;;;;6079201;29;20272;-80
2023/07/31 01:25:24;;;;;;;8.60;7.90;;;;;;;;;;6094740;29;20478;-78
2023/07/31 01:28:34;;;;;;;7.78;7.35;;;;;;;;;;6094425;29;20483;-80
2023/07/31 01:31:39;;;;;;;8.52;7.65;;;;;;;;;;6093358;29;20482;-80
2023/07/31 01:34:43;;;;;;;7.43;6.97;;;;;;;;;;6092991;29;20494;-79
2023/07/31 01:37:47;;;;;;;6.57;6.15;;;;;;;;;;6095615;29;20515;-80
2023/07/31 01:40:53;;;;;;;6.43;5.95;;;;;;;;;;6095791;29;20245;-81
2023/07/31 01:44:03;;;;;;;7.55;6.95;;;;;;;;;;6094625;29;20273;-80
2023/07/31 01:47:07;;;;;;;7.50;7.00;;;;;;;;;;6095963;29;20246;-78
2023/07/31 01:50:11;;;;;;;9.50;8.70;;;;;;;;;;6092497;29;20478;-80
2023/07/31 01:53:16;;;;;;;9.03;8.27;;;;;;;;;;6092537;29;20470;-79
2023/07/31 01:56:20;;;;;;;8.10;7.60;;;;;;;;;;6093063;29;20454;-79
2023/07/31 01:59:25;;;;;;;8.63;8.00;;;;;;;;;;6093630;29;20489;-79
2023/07/31 02:02:29;;;;;;;8.38;7.78;;;;;;;;;;6092201;29;20655;-80
2023/07/31 02:05:34;;;;;;;8.55;7.88;;;;;;;;;;6093056;29;20802;-79
2023/07/31 02:08:38;;;;;;;8.68;8.07;;;;;;;;;;6076663;29;20494;-79
2023/07/31 02:11:42;;;;;;;8.60;7.97;;;;;;;;;;6093568;29;20491;-80
2023/07/31 02:14:47;;;;;;;8.70;8.00;;;;;;;;;;6082354;29;20473;-79
2023/07/31 02:17:51;;;;;;;8.93;8.30;;;;;;;;;;6069704;29;20464;-80
2023/07/31 02:20:55;;;;;;;8.13;7.53;;;;;;;;;;6069864;29;20492;-80
2023/07/31 02:23:59;;;;;;;7.30;6.82;;;;;;;;;;6072076;29;20250;-81
2023/07/31 02:27:04;;;;;;;6.57;6.18;;;;;;;;;;6070653;29;20273;-80
2023/07/31 02:30:10;;;;;;;7.75;7.15;;;;;;;;;;6073105;29;20237;-78
2023/07/31 02:33:16;;;;;;;7.68;6.97;;;;;;;;;;6079299;29;20513;-80
2023/07/31 02:36:20;;;;;;;6.75;6.45;;;;;;;;;;6071248;29;20270;-79
2023/07/31 02:39:24;;;;;;;7.80;7.05;;;;;;;;;;6074175;29;20360;-80
2023/07/31 02:42:27;;;;;;;9.40;7.05;;;;;;;;;;6072368;29;20285;-79
2023/07/31 02:45:33;;;;;;;9.45;6.88;;;;;;;;;;6055421;29;20273;-80
2023/07/31 02:48:37;;;;;;;8.07;7.28;;;;;;;;;;6071306;29;20281;-79
2023/07/31 02:51:41;;;;;;;8.27;7.18;;;;;;;;;;6070212;29;20473;-80
2023/07/31 02:54:45;;;;;;;8.32;7.25;;;;;;;;;;6071824;29;20242;-80
2023/07/31 02:57:49;;;;;;;8.48;7.13;;;;;;;;;;6071146;29;20238;-78
2023/07/31 03:00:54;;;;;;;8.30;7.60;;;;;;;;;;6071096;29;20268;-80
2023/07/31 03:03:58;;;;;;;12.65;7.90;;;;;;;;;;6071090;29;20406;-80
2023/07/31 03:07:02;;;;;;;9.80;7.38;;;;;;;;;;6070858;29;20297;-80
2023/07/31 03:10:07;;;;;;;7.57;7.03;;;;;;;;;;6075587;29;20237;-80
2023/07/31 03:13:11;;;;;;;8.23;7.05;;;;;;;;;;6073946;29;20274;-79
2023/07/31 03:16:17;;;;;;;10.20;9.30;;;;;;;;;;6095719;29;20574;-81
2023/07/31 03:19:21;;;;;;;10.10;7.70;;;;;;;;;;6098420;29;20282;-79
2023/07/31 03:22:25;;;;;;;8.27;7.57;;;;;;;;;;6098592;29;20533;-79
2023/07/31 03:25:28;;;;;;;7.65;7.03;;;;;;;;;;6081713;29;20313;-80
2023/07/31 03:28:32;;;;;;;8.10;7.40;;;;;;;;;;6098649;29;20521;-80
2023/07/31 03:31:38;;;;;;;8.43;7.82;;;;;;;;;;6098676;29;20249;-80
2023/07/31 03:34:42;;;;;;;10.18;9.13;;;;;;;;;;6096441;29;20466;-80
2023/07/31 03:37:45;;;;;;;9.73;9.02;;;;;;;;;;6095930;29;20483;-76
2023/07/31 03:40:49;;;;;;;10.45;9.45;;;;;;;;;;6095716;29;20483;-81
2023/07/31 03:43:55;;;;;;;9.80;9.10;;;;;;;;;;6094408;29;20499;-79
2023/07/31 03:47:01;;;;;;;9.93;9.23;;;;;;;;;;6079092;29;20494;-79
2023/07/31 03:50:06;;;;;;;10.05;9.23;;;;;;;;;;6096187;29;20487;-79
2023/07/31 03:53:10;;;;;;;10.15;9.20;;;;;;;;;;6095896;29;20466;-79
2023/07/31 03:56:14;;;;;;;10.25;9.27;;;;;;;;;;6099091;29;20479;-78
2023/07/31 03:59:18;;;;;;;9.95;9.00;;;;;;;;;;6099880;29;20503;-81
2023/07/31 04:02:23;;;;;;;10.13;9.23;;;;;;;;;;6095801;29;20478;-79
2023/07/31 04:05:27;;;;;;;10.02;9.13;;;;;;;;;;6095602;29;20771;-80
2023/07/31 04:08:31;;;;;;;9.73;8.93;;;;;;;;;;6097854;29;20470;-81
2023/07/31 04:11:35;;;;;;;13.52;9.50;;;;;;;;;;6097393;29;20475;-78
2023/07/31 04:14:39;;;;;;;10.07;9.10;;;;;;;;;;6086878;29;20472;-79
2023/07/31 04:17:44;;;;;;;9.10;8.30;;;;;;;;;;6074589;29;20250;-80
2023/07/31 04:20:48;;;;;;;8.50;7.80;;;;;;;;;;6074122;29;20273;-79
2023/07/31 04:23:55;;;;;;;7.88;7.10;;;;;;;;;;6075121;29;20451;-80
2023/07/31 04:26:59;;;;;;;8.80;7.13;;;;;;;;;;6075479;29;20253;-79
2023/07/31 04:30:04;;;;;;;10.00;7.85;;;;;;;;;;6075087;29;20237;-79
2023/07/31 04:33:09;;;;;;;7.95;7.35;;;;;;;;;;6074385;29;20246;-79
2023/07/31 04:36:13;;;;;;;9.65;8.10;;;;;;;;;;6073536;29;20281;-79
2023/07/31 04:39:18;;;;;;;12.27;10.02;;;;;;;;;;6072807;29;20465;-80
2023/07/31 04:42:22;;;;;;;10.77;9.85;;;;;;;;;;6073209;29;20638;-80
2023/07/31 04:45:26;;;;;;;11.20;10.20;;;;;;;;;;6072728;29;20657;-80
2023/07/31 04:48:32;;;;;;;12.80;10.00;;;;;;;;;;6072629;29;20489;-80
2023/07/31 04:51:36;;;;;;;11.27;10.33;;;;;;;;;;6073029;29;20472;-80
2023/07/31 04:54:40;;;;;;;11.65;10.38;;;;;;;;;;6073100;29;20509;-78
2023/07/31 04:57:43;;;;;;;10.67;9.90;;;;;;;;;;6072998;29;20483;-80
2023/07/31 05:00:47;;;;;;;10.93;10.00;;;;;;;;;;6073070;29;20496;-80
2023/07/31 05:03:53;;;;;;;11.00;9.90;;;;;;;;;;6071268;29;20480;-79
2023/07/31 05:06:57;;;;;;;11.32;10.43;;;;;;;;;;6073993;29;20548;-80
2023/07/31 05:10:01;;;;;;;11.25;10.25;;;;;;;;;;6074532;29;20655;-79
2023/07/31 05:13:05;;;;;;;11.73;10.57;;;;;;;;;;6071794;29;20460;-79
2023/07/31 05:16:10;;;;;;;11.88;10.68;;;;;;;;;;6092318;29;20491;-80
2023/07/31 05:19:16;;;;;;;11.48;10.40;;;;;;;;;;6094914;29;20478;-81
2023/07/31 05:22:19;;;;;;;11.02;10.13;;;;;;;;;;6101030;29;20486;-80
2023/07/31 05:25:23;;;;;;;10.20;9.35;;;;;;;;;;6097840;29;20552;-80
2023/07/31 05:28:27;;;;;;;13.07;9.60;;;;;;;;;;6096325;29;20264;-80
2023/07/31 05:31:32;;;;;;;9.65;8.52;;;;;;;;;;6094103;29;20272;-78
2023/07/31 05:34:37;;;;;;;8.95;8.25;;;;;;;;;;6095284;29;20244;-79
2023/07/31 05:37:41;;;;;;;8.98;8.07;;;;;;;;;;6094017;29;20298;-79
2023/07/31 05:40:45;;;;;;;9.07;8.18;;;;;;;;;;6095151;29;20283;-79
2023/07/31 05:43:49;;;;;;;8.13;7.53;;;;;;;;;;6094042;29;20272;-80
2023/07/31 05:46:53;;;;;;;7.65;7.15;;;;;;;;;;6095163;29;20276;-80
2023/07/31 05:49:58;;;;;;;13.20;7.70;;;;;;;;;;6094725;29;20317;-79
2023/07/31 05:53:02;;;;;;;7.97;7.30;;;;;;;;;;6095285;29;20257;-79
2023/07/31 05:56:06;;;;;;;8.18;7.50;;;;;;;;;;6095071;29;20241;-79
2023/07/31 05:59:11;;;;;;;7.60;6.90;;;;;;;;;;6092984;29;20285;-80
2023/07/31 06:02:15;;;;;;;7.70;7.10;;;;;;;;;;6094745;29;20268;-80
2023/07/31 06:05:20;;;;;;;7.65;7.15;;;;;;;;;;6093508;29;20498;-80
2023/07/31 06:08:24;;;;;;;9.95;7.13;;;;;;;;;;6095045;29;20249;-79
2023/07/31 06:11:28;;;;;;;7.57;7.05;;;;;;;;;;6095137;29;20253;-81
2023/07/31 06:14:32;;;;;;;7.18;6.57;;;;;;;;;;6086217;29;20546;-81
2023/07/31 06:17:36;;;;;;;6.82;6.43;;;;;;;;;;6072604;29;20246;-80
2023/07/31 06:20:42;;;;;;;7.50;6.97;;;;;;;;;;6070999;29;20277;-80
2023/07/31 06:23:45;;;;;;;11.75;7.93;;;;;;;;;;6069308;29;20286;-78
2023/07/31 06:26:50;;;;;;;7.95;7.35;;;;;;;;;;6068676;29;20238;-79
2023/07/31 06:29:54;;;;;;;7.97;7.28;;;;;;;;;;6068736;29;20241;-79
2023/07/31 06:32:58;;;;;;;7.88;7.18;;;;;;;;;;6068955;29;20245;-79
2023/07/31 06:36:03;;;;;;;7.68;6.70;;;;;;;;;;6069034;29;20254;-79
2023/07/31 06:39:07;;;;;;;7.53;6.82;;;;;;;;;;6068671;29;20250;-79
2023/07/31 06:42:11;;;;;;;12.15;6.90;;;;;;;;;;6068574;29;20273;-79
2023/07/31 06:45:15;;;;;;;807.22;138.48;;;;;;;;;;6073029;29;20238;-79
2023/07/31 06:48:19;;;;;;;42.90;13.70;;;;;;;;;;6081739;29;20242;-79
2023/07/31 06:51:25;;;;;;;15.10;7.25;;;;;;;;;;6073584;29;20250;-79
2023/07/31 06:54:29;;;;;;;5.50;5.20;;;;;;;;;;6072785;29;20242;-80
2023/07/31 06:57:33;;;;;;;6.45;5.25;;;;;;;;;;6072622;29;20246;-79
2023/07/31 07:00:37;;;;;;;8.70;6.35;;;;;;;;;;6072832;29;20251;-79
2023/07/31 07:03:41;;;;;;;12.57;6.60;;;;;;;;;;6072856;29;20250;-79
2023/07/31 07:06:46;;;;;;;16.85;8.63;;;;;;;;;;6072982;29;20301;-79
2023/07/31 07:09:50;;;;;;;17.58;7.63;;;;;;;;;;6073058;29;20533;-79
2023/07/31 07:12:55;;;;;;;5.03;4.55;;;;;;;;;;6072622;29;20249;-79
2023/07/31 07:15:59;;;;;;;7.93;4.97;;;;;;;;;;6093121;29;20421;-79
2023/07/31 07:19:02;;;;;;;6.95;4.43;;;;;;;;;;6096708;29;20245;-80
2023/07/31 07:22:09;;;;;;;6.60;4.28;;;;;;;;;;6098381;29;20280;-79
2023/07/31 07:25:13;;;;;;;11.18;4.05;;;;;;;;;;6096642;29;20406;-78
2023/07/31 07:28:17;;;;;;;7.15;4.50;;;;;;;;;;6096190;29;20245;-79
2023/07/31 07:31:21;;;;;;;6.47;4.32;;;;;;;;;;6095837;29;20240;-79
2023/07/31 07:34:26;;;;;;;6.47;4.38;;;;;;;;;;6099961;29;20248;-79
2023/07/31 07:37:31;;;;;;;4.32;4.03;;;;;;;;;;6097274;29;20254;-79
2023/07/31 07:40:39;;;;;;;4.05;3.85;;;;;;;;;;6095282;29;20248;-79
2023/07/31 07:43:43;;;;;;;5.82;4.40;;;;;;;;;;6095722;29;20268;-80
2023/07/31 07:46:47;;;;;;;5.20;4.50;;;;;;;;;;6077881;29;20281;-80
2023/07/31 07:49:51;;;;;;;6.95;4.22;;;;;;;;;;6095479;29;20249;-79
2023/07/31 07:52:57;;;;;;;6.80;3.80;;;;;;;;;;6095137;29;20256;-79
2023/07/31 07:56:01;;;;;;;4.40;4.10;;;;;;;;;;6094066;29;20249;-80
2023/07/31 07:59:05;;;;;;;7.68;4.22;;;;;;;;;;6093931;29;20466;-80
2023/07/31 08:02:08;;;;;;;4.70;4.28;;;;;;;;;;6095063;29;20273;-80
2023/07/31 08:05:12;;;;;;;4.85;4.18;;;;;;;;;;6094982;29;20289;-80
2023/07/31 08:08:18;;;;;;;4.20;3.75;;;;;;;;;;6095313;29;20375;-79
2023/07/31 08:11:23;;;;;;;5.50;3.65;;;;;;;;;;6095369;29;20245;-80
2023/07/31 08:14:27;;;;;;;6.50;3.60;;;;;;;;;;6099353;29;20214;-80
2023/07/31 08:17:34;;;;;;;6.78;4.75;;;;;;;;;;6070281;29;20471;-80
2023/07/31 08:20:38;;;;;;;4.68;4.28;;;;;;;;;;6070079;29;20477;-79
2023/07/31 08:23:43;;;;;;;7.95;4.45;;;;;;;;;;6070161;29;20495;-79
2023/07/31 08:26:48;;;;;;;7.53;4.82;;;;;;;;;;6071459;29;20246;-79
2023/07/31 08:29:53;;;;;;;3.83;3.50;;;;;;;;;;6071622;29;20241;-79
2023/07/31 08:32:56;;;;;;;5.18;4.28;;;;;;;;;;6071088;29;20264;-80
2023/07/31 08:36:01;;;;;;;6.45;4.15;;;;;;;;;;6071201;29;20250;-80
2023/07/31 08:39:06;;;;;;;3.95;2.90;;;;;;;;;;6071282;29;20249;-80
2023/07/31 08:42:10;;;;;;;5.18;3.00;;;;;;;;;;6071463;29;20519;-80
2023/07/31 08:45:16;;;;;;;3.28;3.08;;;;;;;;;;6071451;29;20470;-80
2023/07/31 08:48:21;;;;;;;3.90;3.53;;;;;;;;;;6073668;29;20261;-80
2023/07/31 08:51:25;;;;;;;3.10;3.00;;;;;;;;;;6071381;29;20250;-81
2023/07/31 08:54:33;;;;;;;6.85;3.40;;;;;;;;;;6071273;29;20245;-79
2023/07/31 08:57:38;;;;;;;5.13;3.10;;;;;;;;;;6071223;29;20254;-80
2023/07/31 09:00:43;;;;;;;3.60;3.08;;;;;;;;;;6071057;29;20234;-80
2023/07/31 09:03:48;;;;;;;3.08;2.88;;;;;;;;;;6071108;29;20270;-79
2023/07/31 09:06:57;;;;;;;2.83;2.60;;;;;;;;;;6071182;29;20293;-79
2023/07/31 09:10:05;;;;;;;2.65;2.42;;;;;;;;;;6071246;29;20446;-79
2023/07/31 09:13:09;;;;;;;3.67;2.35;;;;;;;;;;6070876;29;20297;-79
2023/07/31 09:16:15;;;;;;;2.78;2.53;;;;;;;;;;6093048;29;20257;-80
2023/07/31 09:19:26;;;;;;;3.17;2.83;;;;;;;;;;6093443;29;20505;-80
2023/07/31 09:22:33;;;;;;;4.70;3.00;;;;;;;;;;6093563;29;20579;-80
2023/07/31 09:25:43;;;;;;;3.03;2.50;;;;;;;;;;6093634;29;20521;-80
2023/07/31 09:28:46;;;;;;;2.90;2.60;;;;;;;;;;6094058;29;20245;-80
2023/07/31 09:31:51;;;;;;;3.20;2.58;;;;;;;;;;6094026;29;20245;-81
2023/07/31 09:34:56;;;;;;;4.15;2.38;;;;;;;;;;6093995;29;20253;-79
2023/07/31 09:38:01;;;;;;;2.80;2.58;;;;;;;;;;6098465;29;20237;-79
2023/07/31 09:41:08;;;;;;;2.40;2.20;;;;;;;;;;6101345;29;20249;-80
2023/07/31 09:44:12;;;;;;;2.53;2.35;;;;;;;;;;6096424;29;20269;-80
2023/07/31 09:47:24;;;;;;;3.47;2.40;;;;;;;;;;6093325;29;20241;-81
2023/07/31 09:50:29;;;;;;;5.00;2.22;;;;;;;;;;6093356;29;20238;-80
2023/07/31 09:53:33;;;;;;;2.55;2.45;;;;;;;;;;6093161;29;20556;-80
2023/07/31 09:56:45;;;;;;;3.30;2.65;;;;;;;;;;6093191;29;20250;-82
2023/07/31 09:59:49;;;;;;;3.90;2.70;;;;;;;;;;6093638;29;20257;-80
2023/07/31 10:02:54;;;;;;;4.88;2.63;;;;;;;;;;6093064;29;20269;-81
2023/07/31 10:05:58;;;;;;;4.30;3.20;;;;;;;;;;6093285;29;20478;-80
2023/07/31 10:09:03;;;;;;;2.50;2.40;;;;;;;;;;6093664;29;20560;-79
2023/07/31 10:12:09;;;;;;;6.13;3.38;;;;;;;;;;6092192;29;20293;-80
2023/07/31 10:15:14;;;;;;;4.57;2.90;;;;;;;;;;6093064;29;20245;-82
2023/07/31 10:18:19;;;;;;;3.45;2.65;;;;;;;;;;6095027;29;20317;-80
2023/07/31 10:21:23;;;;;;;2.63;2.50;;;;;;;;;;6098478;29;20249;-80
2023/07/31 10:24:28;;;;;;;2.85;2.50;;;;;;;;;;6098086;29;20273;-80
2023/07/31 10:27:35;;;;;;;4.32;2.50;;;;;;;;;;6098238;29;20245;-81
2023/07/31 10:30:40;;;;;;;2.60;2.40;;;;;;;;;;6097791;29;20432;-80
2023/07/31 10:33:44;;;;;;;3.03;2.03;;;;;;;;;;6097739;29;20251;-81
2023/07/31 10:36:49;;;;;;;3.00;2.20;;;;;;;;;;6096749;29;20284;-81
2023/07/31 10:39:57;;;;;;;2.83;2.63;;;;;;;;;;6097846;29;20533;-79
2023/07/31 10:43:03;;;;;;;2.42;2.25;;;;;;;;;;6097786;29;20264;-81
2023/07/31 10:46:10;;;;;;;2.38;2.28;;;;;;;;;;6097722;29;20241;-81
2023/07/31 10:49:22;;;;;;;3.40;2.45;;;;;;;;;;6097385;29;20241;-80
2023/07/31 10:52:27;;;;;;;2.80;2.60;;;;;;;;;;6097435;29;20273;-80
2023/07/31 10:55:32;;;;;;;2.72;2.20;;;;;;;;;;6097673;29;20412;-81
2023/07/31 10:58:38;;;;;;;2.33;2.10;;;;;;;;;;6097301;29;20248;-80
2023/07/31 11:01:52;;;;;;;2.20;2.10;;;;;;;;;;6097132;29;20248;-81
2023/07/31 11:05:08;;;;;;;3.03;2.15;;;;;;;;;;6107383;29;20276;-79
2023/07/31 11:08:17;;;;;;;5.30;2.35;;;;;;;;;;6080329;29;20268;-80
2023/07/31 11:11:21;;;;;;;2.28;2.08;;;;;;;;;;6095904;29;20277;-80
2023/07/31 11:14:27;;;;;;;2.53;2.10;;;;;;;;;;6089236;29;20530;-81
2023/07/31 11:17:31;;;;;;;5.88;2.03;;;;;;;;;;6073408;29;20257;-80
2023/07/31 11:20:36;;;;;;;2.15;2.03;;;;;;;;;;6073805;29;20242;-81
2023/07/31 11:23:40;;;;;;;4.35;1.98;;;;;;;;;;6073645;29;20273;-79
2023/07/31 11:26:50;;;;;;;2.90;1.98;;;;;;;;;;6073258;29;20254;-81
2023/07/31 11:30:01;;;;;;;4.15;2.22;;;;;;;;;;6073610;29;20241;-81
2023/07/31 11:33:06;;;;;;;4.40;2.13;;;;;;;;;;6073227;29;20250;-81
2023/07/31 11:36:16;;;;;;;2.17;1.95;;;;;;;;;;6073055;29;20253;-80
2023/07/31 11:39:20;;;;;;;2.35;2.10;;;;;;;;;;6073080;29;20246;-79
2023/07/31 11:42:24;;;;;;;2.10;2.00;;;;;;;;;;6073003;29;20241;-80
2023/07/31 11:45:29;;;;;;;3.55;2.17;;;;;;;;;;6072725;29;20277;-80
2023/07/31 11:48:35;;;;;;;4.05;2.60;;;;;;;;;;6072899;29;20245;-80
2023/07/31 11:51:39;;;;;;;3.13;2.90;;;;;;;;;;6071097;29;20476;-79
2023/07/31 11:54:43;;;;;;;3.60;2.63;;;;;;;;;;6072872;29;20249;-79
2023/07/31 11:57:48;;;;;;;2.50;2.40;;;;;;;;;;6072838;29;20250;-79
2023/07/31 12:00:54;;;;;;;2.42;2.30;;;;;;;;;;6073017;29;20242;-80
2023/07/31 12:03:58;;;;;;;3.90;2.53;;;;;;;;;;6073933;29;20269;-79
2023/07/31 12:07:02;;;;;;;2.65;2.47;;;;;;;;;;6071135;29;20496;-80
2023/07/31 12:10:06;;;;;;;2.33;2.08;;;;;;;;;;6072242;29;20246;-79
2023/07/31 12:13:13;;;;;;;2.42;2.35;;;;;;;;;;6072467;29;20270;-81
2023/07/31 12:16:18;;;;;;;2.55;2.38;;;;;;;;;;6094829;29;20249;-80
2023/07/31 12:19:22;;;;;;;3.22;2.78;;;;;;;;;;6093795;29;20277;-78
2023/07/31 12:22:27;;;;;;;2.05;2.00;;;;;;;;;;6095178;29;20252;-81
2023/07/31 12:25:33;;;;;;;4.03;2.50;;;;;;;;;;6097146;29;20338;-79
2023/07/31 12:28:37;;;;;;;2.33;2.20;;;;;;;;;;6102650;29;20462;-78
2023/07/31 12:31:43;;;;;;;2.20;2.10;;;;;;;;;;6096647;29;20481;-80
2023/07/31 12:34:47;;;;;;;2.13;1.65;;;;;;;;;;6095271;29;20248;-81
2023/07/31 12:37:51;;;;;;;2.50;2.30;;;;;;;;;;6095022;29;20425;-78
2023/07/31 12:40:54;;;;;;;2.08;1.98;;;;;;;;;;6094282;29;20510;-79
2023/07/31 12:43:59;;;;;;;4.05;2.17;;;;;;;;;;6094798;29;20249;-79
2023/07/31 12:47:05;;;;;;;2.22;2.13;;;;;;;;;;6094836;29;20532;-80
2023/07/31 12:50:09;;;;;;;2.58;2.40;;;;;;;;;;6094713;29;20245;-79
2023/07/31 12:53:12;;;;;;;3.25;2.22;;;;;;;;;;6094520;29;20524;-79
2023/07/31 12:56:17;;;;;;;2.45;2.28;;;;;;;;;;6094585;29;20248;-80
2023/07/31 12:59:21;;;;;;;2.40;2.30;;;;;;;;;;6094481;29;20253;-80
2023/07/31 13:02:27;;;;;;;2.00;2.00;;;;;;;;;;6094452;29;20241;-79
2023/07/31 13:05:31;;;;;;;2.25;2.22;;;;;;;;;;6093975;29;20304;-79
2023/07/31 13:08:35;;;;;;;2.00;2.00;;;;;;;;;;6094101;29;20281;-80
2023/07/31 13:11:39;;;;;;;2.33;2.13;;;;;;;;;;6094074;29;20557;-80
2023/07/31 13:14:42;;;;;;;2.00;1.90;;;;;;;;;;6084093;29;20268;-80
2023/07/31 13:17:48;;;;;;;5.28;2.38;;;;;;;;;;6070841;29;20249;-80
2023/07/31 13:20:52;;;;;;;2.30;2.20;;;;;;;;;;6070846;29;20245;-80
2023/07/31 13:23:57;;;;;;;2.58;2.38;;;;;;;;;;6070977;29;20258;-78
2023/07/31 13:27:01;;;;;;;2.65;2.42;;;;;;;;;;6070710;29;20269;-78
2023/07/31 13:30:06;;;;;;;2.42;2.30;;;;;;;;;;6070894;29;20267;-80
2023/07/31 13:33:11;;;;;;;2.03;2.00;;;;;;;;;;6070362;29;20245;-80
2023/07/31 13:36:36;;;;;;;2.10;2.00;;;;;;;;;;6070146;29;20253;-79
2023/07/31 13:39:41;;;;;;;2.17;2.10;;;;;;;;;;6070715;29;20245;-79
2023/07/31 13:42:46;;;;;;;2.72;2.55;;;;;;;;;;6070438;29;20293;-79
2023/07/31 13:45:50;;;;;;;2.35;2.13;;;;;;;;;;6070403;29;20265;-79
2023/07/31 13:48:55;;;;;;;2.35;2.20;;;;;;;;;;6070246;29;20250;-79
2023/07/31 13:51:59;;;;;;;2.40;2.35;;;;;;;;;;6069562;29;20436;-79
2023/07/31 13:55:03;;;;;;;2.35;2.28;;;;;;;;;;6076443;29;20297;-79
2023/07/31 13:58:08;;;;;;;3.47;2.42;;;;;;;;;;6073855;29;20246;-80
2023/07/31 14:01:12;;;;;;;2.20;2.10;;;;;;;;;;6070375;29;20251;-80
2023/07/31 14:04:19;;;;;;;2.63;2.55;;;;;;;;;;6070059;29;20241;-79
2023/07/31 14:07:23;;;;;;;3.50;2.42;;;;;;;;;;6070306;29;20297;-81
2023/07/31 14:10:27;;;;;;;2.88;2.33;;;;;;;;;;6070339;29;20245;-81
2023/07/31 14:13:30;;;;;;;2.65;2.58;;;;;;;;;;6070927;29;20250;-80
2023/07/31 14:16:34;;;;;;;2.72;2.53;;;;;;;;;;6091950;29;20275;-80
2023/07/31 14:19:40;;;;;;;2.47;2.30;;;;;;;;;;6092945;29;20248;-79
2023/07/31 14:22:44;;;;;;;3.08;2.88;;;;;;;;;;6093162;29;20237;-80
2023/07/31 14:25:48;;;;;;;3.50;3.17;;;;;;;;;;6093233;29;20276;-80
2023/07/31 14:28:52;;;;;;;3.17;2.97;;;;;;;;;;6092663;29;20256;-80
2023/07/31 14:31:56;;;;;;;4.20;2.67;;;;;;;;;;6093023;29;20529;-80
2023/07/31 14:35:01;;;;;;;2.85;2.63;;;;;;;;;;6092978;29;20245;-81
2023/07/31 14:38:05;;;;;;;2.75;2.60;;;;;;;;;;6093093;29;20257;-82
2023/07/31 14:41:10;;;;;;;2.75;2.65;;;;;;;;;;6092982;29;20250;-82
2023/07/31 14:44:14;;;;;;;3.45;3.17;;;;;;;;;;6092899;29;20245;-81
2023/07/31 14:47:18;;;;;;;4.57;3.35;;;;;;;;;;6092883;29;20268;-81
2023/07/31 14:50:23;;;;;;;3.50;2.95;;;;;;;;;;6092789;29;20249;-81
2023/07/31 14:53:26;;;;;;;3.42;3.05;;;;;;;;;;6092981;29;20252;-81
2023/07/31 14:56:30;;;;;;;4.45;2.83;;;;;;;;;;6093116;29;20406;-82
2023/07/31 14:59:34;;;;;;;3.17;2.78;;;;;;;;;;6093184;29;20309;-81
2023/07/31 15:02:38;;;;;;;3.22;3.00;;;;;;;;;;6091504;29;20281;-81
2023/07/31 15:05:43;;;;;;;3.53;3.22;;;;;;;;;;6096535;29;20300;-82
2023/07/31 15:08:47;;;;;;;3.03;2.75;;;;;;;;;;6097083;29;20265;-81
2023/07/31 15:11:51;;;;;;;3.33;3.10;;;;;;;;;;6097036;29;20323;-80
2023/07/31 15:14:55;;;;;;;3.40;3.20;;;;;;;;;;6088393;29;20578;-81
2023/07/31 15:17:59;;;;;;;5.57;3.05;;;;;;;;;;6073974;29;20247;-82
2023/07/31 15:21:05;;;;;;;3.50;3.30;;;;;;;;;;6083798;29;20247;-80
2023/07/31 15:24:09;;;;;;;5.68;3.97;;;;;;;;;;6076794;29;20250;-80
2023/07/31 15:27:13;;;;;;;5.90;4.03;;;;;;;;;;6073712;29;20269;-80
2023/07/31 15:30:17;;;;;;;3.50;3.20;;;;;;;;;;6073696;29;20245;-81
2023/07/31 15:33:21;;;;;;;3.83;3.53;;;;;;;;;;6073326;29;20246;-82
2023/07/31 15:36:26;;;;;;;4.00;3.42;;;;;;;;;;6073177;29;20455;-80
2023/07/31 15:39:30;;;;;;;6.38;3.72;;;;;;;;;;6072559;29;20557;-82
2023/07/31 15:42:39;;;;;;;4.65;3.35;;;;;;;;;;6073414;29;20265;-81
2023/07/31 15:45:42;;;;;;;4.25;3.45;;;;;;;;;;6072705;29;20269;-81
2023/07/31 15:48:46;;;;;;;3.88;3.40;;;;;;;;;;6072806;29;20246;-80
2023/07/31 15:51:52;;;;;;;3.70;3.50;;;;;;;;;;6073065;29;20498;-81
2023/07/31 15:54:55;;;;;;;7.25;3.55;;;;;;;;;;6073012;29;20257;-81
2023/07/31 15:57:59;;;;;;;7.00;4.88;;;;;;;;;;6073239;29;20245;-81
2023/07/31 16:01:03;;;;;;;6.20;3.83;;;;;;;;;;6073099;29;20237;-82
2023/07/31 16:04:07;;;;;;;4.53;4.13;;;;;;;;;;6076211;29;20246;-80
2023/07/31 16:07:13;;;;;;;5.07;4.07;;;;;;;;;;6072716;29;20465;-82
2023/07/31 16:10:17;;;;;;;5.90;4.05;;;;;;;;;;6072615;29;20250;-80
2023/07/31 16:13:20;;;;;;;5.22;3.97;;;;;;;;;;6072859;29;20242;-81
2023/07/31 16:16:27;;;;;;;4.90;4.32;;;;;;;;;;6071636;29;20263;-82
2023/07/31 16:19:31;;;;;;;6.68;3.97;;;;;;;;;;6072616;29;20246;-82
2023/07/31 16:22:36;;;;;;;4.45;4.10;;;;;;;;;;6071970;29;20242;-81
2023/07/31 16:25:40;;;;;;;4.88;4.20;;;;;;;;;;6072480;29;20246;-81
2023/07/31 16:28:43;;;;;;;4.95;4.07;;;;;;;;;;6086561;29;20345;-81
2023/07/31 16:31:48;;;;;;;3.78;3.35;;;;;;;;;;6071931;29;20432;-80
2023/07/31 16:35:01;;;;;;;4.70;3.65;;;;;;;;;;6072083;29;20425;-80
2023/07/31 16:38:06;;;;;;;4.68;3.28;;;;;;;;;;6072083;29;20306;-81
2023/07/31 16:41:09;;;;;;;3.55;3.25;;;;;;;;;;6072062;29;20269;-81
2023/07/31 16:44:15;;;;;;;7.65;3.42;;;;;;;;;;6071722;29;20274;-81
2023/07/31 16:47:20;;;;;;;4.00;3.70;;;;;;;;;;6082609;29;20294;-81
2023/07/31 16:50:23;;;;;;;3.83;3.53;;;;;;;;;;6072276;29;20241;-81
2023/07/31 16:53:29;;;;;;;3.60;3.28;;;;;;;;;;6072029;29;20254;-81
2023/07/31 16:56:32;;;;;;;4.72;3.70;;;;;;;;;;6079193;29;20524;-82
2023/07/31 16:59:56;;;;;;;4.75;3.25;;;;;;;;;;6094419;29;20454;-81
2023/07/31 17:03:00;;;;;;;4.32;3.00;;;;;;;;;;6094697;29;20380;-81
2023/07/31 17:06:04;;;;;;;4.22;3.17;;;;;;;;;;6094355;29;20293;-79
2023/07/31 17:09:10;;;;;;;3.03;2.92;;;;;;;;;;6094127;29;20297;-80
2023/07/31 17:12:14;;;;;;;3.92;3.60;;;;;;;;;;6094270;29;20249;-80
2023/07/31 17:15:18;;;;;;;5.85;3.20;;;;;;;;;;6093836;29;20250;-81
2023/07/31 17:18:22;;;;;;;4.88;3.10;;;;;;;;;;6094306;29;20241;-82
2023/07/31 17:21:27;;;;;;;3.63;3.25;;;;;;;;;;6093793;29;20435;-80
2023/07/31 17:24:32;;;;;;;3.50;3.17;;;;;;;;;;6093869;29;20245;-80
2023/07/31 17:27:36;;;;;;;3.55;3.25;;;;;;;;;;6093465;29;20272;-80
2023/07/31 17:30:40;;;;;;;4.35;2.85;;;;;;;;;;6092928;29;20303;-80
2023/07/31 17:33:44;;;;;;;3.78;3.30;;;;;;;;;;6093915;29;20252;-80
2023/07/31 17:36:48;;;;;;;6.63;2.92;;;;;;;;;;6094241;29;20241;-83
2023/07/31 17:39:53;;;;;;;3.30;3.20;;;;;;;;;;6093860;29;20233;-80
2023/07/31 17:42:59;;;;;;;4.57;3.03;;;;;;;;;;6093528;29;20245;-82
2023/07/31 17:46:03;;;;;;;4.47;3.67;;;;;;;;;;6093711;29;20430;-83
2023/07/31 17:49:11;;;;;;;4.50;2.90;;;;;;;;;;6093670;29;20264;-82
2023/07/31 17:52:15;;;;;;;3.70;3.40;;;;;;;;;;6093743;29;20244;-79
2023/07/31 17:55:20;;;;;;;3.65;3.38;;;;;;;;;;6093443;29;20266;-80
2023/07/31 17:58:23;;;;;;;8.27;3.78;;;;;;;;;;6093953;29;20248;-81
2023/07/31 18:01:27;;;;;;;4.22;3.22;;;;;;;;;;6093709;29;20249;-86
2023/07/31 18:04:31;;;;;;;4.47;3.67;;;;;;;;;;6093374;29;20253;-86
2023/07/31 18:07:35;;;;;;;5.32;3.40;;;;;;;;;;6093032;29;20296;-88
2023/07/31 18:10:45;;;;;;;6.32;3.33;;;;;;;;;;6093332;29;20245;-78
2023/07/31 18:13:49;;;;;;;3.53;3.20;;;;;;;;;;6102114;29;20237;-82
2023/07/31 18:16:53;;;;;;;3.13;2.92;;;;;;;;;;6092732;29;20248;-78
2023/07/31 18:19:57;;;;;;;3.67;3.03;;;;;;;;;;6092813;29;20539;-78
2023/07/31 18:23:01;;;;;;;3.90;3.60;;;;;;;;;;6092734;29;20240;-81
2023/07/31 18:26:06;;;;;;;4.60;4.30;;;;;;;;;;6094585;29;20245;-81